sensor_id;sensor_type;location;lat;lon;timestamp;P1;durP1;ratioP1;P2;durP2;ratioP2
10114;SDS011;5097;43.260;27.812;2023-01-20T00:00:28;7.77;;;3.37;;
10114;SDS011;5097;43.260;27.812;2023-01-20T00:03:13;3.60;;;3.30;;
10114;SDS011;5097;43.260;27.812;2023-01-20T00:05:57;9.87;;;3.87;;
10114;SDS011;5097;43.260;27.812;2023-01-20T00:08:43;3.10;;;2.80;;
10114;SDS011;5097;43.260;27.812;2023-01-20T00:11:27;6.60;;;3.60;;
10114;SDS011;5097;43.260;27.812;2023-01-20T00:14:12;7.17;;;3.00;;
10114;SDS011;5097;43.260;27.812;2023-01-20T00:16:56;5.73;;;3.60;;
10114;SDS011;5097;43.260;27.812;2023-01-20T00:19:41;9.47;;;3.37;;
10114;SDS011;5097;43.260;27.812;2023-01-20T00:22:25;4.97;;;3.80;;
10114;SDS011;5097;43.260;27.812;2023-01-20T00:25:11;5.97;;;4.00;;
10114;SDS011;5097;43.260;27.812;2023-01-20T00:27:55;9.53;;;4.00;;
10114;SDS011;5097;43.260;27.812;2023-01-20T00:30:39;7.43;;;3.83;;
10114;SDS011;5097;43.260;27.812;2023-01-20T00:33:23;7.50;;;3.83;;
10114;SDS011;5097;43.260;27.812;2023-01-20T00:36:07;7.93;;;3.30;;
10114;SDS011;5097;43.260;27.812;2023-01-20T00:38:51;4.63;;;3.73;;
10114;SDS011;5097;43.260;27.812;2023-01-20T00:41:37;6.57;;;3.50;;
10114;SDS011;5097;43.260;27.812;2023-01-20T00:44:21;6.10;;;3.27;;
10114;SDS011;5097;43.260;27.812;2023-01-20T00:47:05;6.90;;;4.00;;
10114;SDS011;5097;43.260;27.812;2023-01-20T00:49:49;10.73;;;4.33;;
10114;SDS011;5097;43.260;27.812;2023-01-20T00:52:33;7.10;;;4.10;;
10114;SDS011;5097;43.260;27.812;2023-01-20T00:55:17;5.43;;;4.07;;
10114;SDS011;5097;43.260;27.812;2023-01-20T00:58:02;4.57;;;3.47;;
10114;SDS011;5097;43.260;27.812;2023-01-20T01:00:46;5.13;;;4.00;;
10114;SDS011;5097;43.260;27.812;2023-01-20T01:03:31;9.07;;;3.67;;
10114;SDS011;5097;43.260;27.812;2023-01-20T01:06:15;5.77;;;3.70;;
10114;SDS011;5097;43.260;27.812;2023-01-20T01:09:00;4.10;;;3.70;;
10114;SDS011;5097;43.260;27.812;2023-01-20T01:11:43;6.57;;;3.83;;
10114;SDS011;5097;43.260;27.812;2023-01-20T01:14:30;4.90;;;3.50;;
10114;SDS011;5097;43.260;27.812;2023-01-20T01:17:15;5.83;;;3.60;;
10114;SDS011;5097;43.260;27.812;2023-01-20T01:19:59;8.10;;;4.03;;
10114;SDS011;5097;43.260;27.812;2023-01-20T01:22:44;6.23;;;4.00;;
10114;SDS011;5097;43.260;27.812;2023-01-20T01:25:28;6.83;;;4.40;;
10114;SDS011;5097;43.260;27.812;2023-01-20T01:28:12;5.33;;;3.60;;
10114;SDS011;5097;43.260;27.812;2023-01-20T01:31:00;4.67;;;3.60;;
10114;SDS011;5097;43.260;27.812;2023-01-20T01:33:44;5.20;;;3.77;;
10114;SDS011;5097;43.260;27.812;2023-01-20T01:36:28;6.30;;;4.10;;
10114;SDS011;5097;43.260;27.812;2023-01-20T01:39:12;6.27;;;4.10;;
10114;SDS011;5097;43.260;27.812;2023-01-20T01:41:55;6.10;;;4.07;;
10114;SDS011;5097;43.260;27.812;2023-01-20T01:48:12;5.83;;;4.00;;
10114;SDS011;5097;43.260;27.812;2023-01-20T01:50:57;6.87;;;4.03;;
10114;SDS011;5097;43.260;27.812;2023-01-20T01:53:45;6.43;;;4.60;;
10114;SDS011;5097;43.260;27.812;2023-01-20T01:56:34;7.10;;;4.63;;
10114;SDS011;5097;43.260;27.812;2023-01-20T01:59:21;5.80;;;4.67;;
10114;SDS011;5097;43.260;27.812;2023-01-20T02:02:05;8.27;;;5.53;;
10114;SDS011;5097;43.260;27.812;2023-01-20T02:04:50;6.87;;;4.20;;
10114;SDS011;5097;43.260;27.812;2023-01-20T02:07:34;6.33;;;4.60;;
10114;SDS011;5097;43.260;27.812;2023-01-20T02:10:18;8.33;;;4.27;;
10114;SDS011;5097;43.260;27.812;2023-01-20T02:13:02;7.13;;;4.43;;
10114;SDS011;5097;43.260;27.812;2023-01-20T02:15:52;6.47;;;4.87;;
10114;SDS011;5097;43.260;27.812;2023-01-20T02:18:50;8.20;;;5.40;;
10114;SDS011;5097;43.260;27.812;2023-01-20T02:21:59;8.27;;;5.00;;
10114;SDS011;5097;43.260;27.812;2023-01-20T02:25:01;7.53;;;6.13;;
10114;SDS011;5097;43.260;27.812;2023-01-20T02:28:22;9.83;;;5.57;;
10114;SDS011;5097;43.260;27.812;2023-01-20T02:31:24;10.80;;;6.60;;
10114;SDS011;5097;43.260;27.812;2023-01-20T02:34:32;10.77;;;5.77;;
10114;SDS011;5097;43.260;27.812;2023-01-20T02:37:21;7.33;;;5.30;;
10114;SDS011;5097;43.260;27.812;2023-01-20T02:40:11;8.70;;;6.13;;
10114;SDS011;5097;43.260;27.812;2023-01-20T02:43:06;7.53;;;5.60;;
10114;SDS011;5097;43.260;27.812;2023-01-20T02:45:54;6.10;;;5.37;;
10114;SDS011;5097;43.260;27.812;2023-01-20T02:48:45;11.00;;;6.30;;
10114;SDS011;5097;43.260;27.812;2023-01-20T02:51:36;9.77;;;5.80;;
10114;SDS011;5097;43.260;27.812;2023-01-20T02:54:25;6.60;;;5.90;;
10114;SDS011;5097;43.260;27.812;2023-01-20T02:57:13;10.03;;;5.90;;
10114;SDS011;5097;43.260;27.812;2023-01-20T03:00:02;6.00;;;5.50;;
10114;SDS011;5097;43.260;27.812;2023-01-20T03:02:50;8.80;;;6.27;;
10114;SDS011;5097;43.260;27.812;2023-01-20T03:05:38;10.43;;;6.60;;
10114;SDS011;5097;43.260;27.812;2023-01-20T03:08:30;8.00;;;6.60;;
10114;SDS011;5097;43.260;27.812;2023-01-20T03:11:15;9.13;;;6.47;;
10114;SDS011;5097;43.260;27.812;2023-01-20T03:14:01;10.47;;;6.77;;
10114;SDS011;5097;43.260;27.812;2023-01-20T03:16:48;7.83;;;6.60;;
10114;SDS011;5097;43.260;27.812;2023-01-20T03:19:32;7.07;;;6.23;;
10114;SDS011;5097;43.260;27.812;2023-01-20T03:22:17;18.43;;;8.30;;
10114;SDS011;5097;43.260;27.812;2023-01-20T03:25:03;10.27;;;6.43;;
10114;SDS011;5097;43.260;27.812;2023-01-20T03:27:47;7.30;;;6.17;;
10114;SDS011;5097;43.260;27.812;2023-01-20T03:30:31;7.40;;;6.47;;
10114;SDS011;5097;43.260;27.812;2023-01-20T03:33:15;9.40;;;6.90;;
10114;SDS011;5097;43.260;27.812;2023-01-20T03:36:00;9.83;;;8.10;;
10114;SDS011;5097;43.260;27.812;2023-01-20T03:38:44;10.60;;;9.17;;
10114;SDS011;5097;43.260;27.812;2023-01-20T03:41:35;9.03;;;7.73;;
10114;SDS011;5097;43.260;27.812;2023-01-20T03:44:28;9.83;;;6.67;;
10114;SDS011;5097;43.260;27.812;2023-01-20T03:47:23;10.33;;;7.57;;
10114;SDS011;5097;43.260;27.812;2023-01-20T03:50:16;12.83;;;8.10;;
10114;SDS011;5097;43.260;27.812;2023-01-20T03:53:14;11.57;;;8.20;;
10114;SDS011;5097;43.260;27.812;2023-01-20T03:56:05;9.97;;;8.23;;
10114;SDS011;5097;43.260;27.812;2023-01-20T03:58:58;9.10;;;8.23;;
10114;SDS011;5097;43.260;27.812;2023-01-20T04:01:44;10.97;;;8.20;;
10114;SDS011;5097;43.260;27.812;2023-01-20T04:04:29;10.13;;;8.37;;
10114;SDS011;5097;43.260;27.812;2023-01-20T04:07:17;8.70;;;7.70;;
10114;SDS011;5097;43.260;27.812;2023-01-20T04:10:08;11.73;;;8.50;;
10114;SDS011;5097;43.260;27.812;2023-01-20T04:12:55;11.20;;;9.20;;
10114;SDS011;5097;43.260;27.812;2023-01-20T04:15:41;9.90;;;8.97;;
10114;SDS011;5097;43.260;27.812;2023-01-20T04:18:26;12.73;;;9.43;;
10114;SDS011;5097;43.260;27.812;2023-01-20T04:21:12;10.80;;;9.50;;
10114;SDS011;5097;43.260;27.812;2023-01-20T04:24:01;10.20;;;9.27;;
10114;SDS011;5097;43.260;27.812;2023-01-20T04:26:49;14.63;;;9.70;;
10114;SDS011;5097;43.260;27.812;2023-01-20T04:29:33;13.77;;;9.37;;
10114;SDS011;5097;43.260;27.812;2023-01-20T04:32:18;10.13;;;8.60;;
10114;SDS011;5097;43.260;27.812;2023-01-20T04:35:02;12.07;;;8.60;;
10114;SDS011;5097;43.260;27.812;2023-01-20T04:37:46;14.20;;;9.47;;
10114;SDS011;5097;43.260;27.812;2023-01-20T04:40:30;9.97;;;8.90;;
10114;SDS011;5097;43.260;27.812;2023-01-20T04:43:14;14.33;;;9.00;;
10114;SDS011;5097;43.260;27.812;2023-01-20T04:45:59;12.70;;;8.80;;
10114;SDS011;5097;43.260;27.812;2023-01-20T04:48:44;11.47;;;8.37;;
10114;SDS011;5097;43.260;27.812;2023-01-20T04:51:28;12.53;;;10.03;;
10114;SDS011;5097;43.260;27.812;2023-01-20T04:54:13;14.13;;;9.77;;
10114;SDS011;5097;43.260;27.812;2023-01-20T04:56:57;11.10;;;9.40;;
10114;SDS011;5097;43.260;27.812;2023-01-20T04:59:41;10.77;;;9.67;;
10114;SDS011;5097;43.260;27.812;2023-01-20T05:02:26;13.90;;;9.67;;
10114;SDS011;5097;43.260;27.812;2023-01-20T05:05:11;10.90;;;9.33;;
10114;SDS011;5097;43.260;27.812;2023-01-20T05:07:56;14.77;;;9.27;;
10114;SDS011;5097;43.260;27.812;2023-01-20T05:10:41;16.73;;;10.10;;
10114;SDS011;5097;43.260;27.812;2023-01-20T05:13:25;10.97;;;9.13;;
10114;SDS011;5097;43.260;27.812;2023-01-20T05:16:09;11.57;;;9.53;;
10114;SDS011;5097;43.260;27.812;2023-01-20T05:18:53;10.83;;;9.63;;
10114;SDS011;5097;43.260;27.812;2023-01-20T05:21:39;10.77;;;8.30;;
10114;SDS011;5097;43.260;27.812;2023-01-20T05:24:23;14.77;;;9.20;;
10114;SDS011;5097;43.260;27.812;2023-01-20T05:27:07;11.40;;;9.53;;
10114;SDS011;5097;43.260;27.812;2023-01-20T05:29:51;15.70;;;9.47;;
10114;SDS011;5097;43.260;27.812;2023-01-20T05:32:35;12.03;;;10.03;;
10114;SDS011;5097;43.260;27.812;2023-01-20T05:35:20;11.03;;;9.93;;
10114;SDS011;5097;43.260;27.812;2023-01-20T05:38:05;11.27;;;9.00;;
10114;SDS011;5097;43.260;27.812;2023-01-20T05:40:49;11.03;;;9.83;;
10114;SDS011;5097;43.260;27.812;2023-01-20T05:43:34;16.80;;;10.37;;
10114;SDS011;5097;43.260;27.812;2023-01-20T05:46:18;12.63;;;9.10;;
10114;SDS011;5097;43.260;27.812;2023-01-20T05:49:02;9.53;;;8.60;;
10114;SDS011;5097;43.260;27.812;2023-01-20T05:51:46;12.23;;;9.00;;
10114;SDS011;5097;43.260;27.812;2023-01-20T05:54:32;12.43;;;9.97;;
10114;SDS011;5097;43.260;27.812;2023-01-20T05:57:16;15.40;;;9.73;;
10114;SDS011;5097;43.260;27.812;2023-01-20T06:00:00;11.97;;;8.93;;
10114;SDS011;5097;43.260;27.812;2023-01-20T06:02:45;11.63;;;8.83;;
10114;SDS011;5097;43.260;27.812;2023-01-20T06:05:30;10.50;;;8.73;;
10114;SDS011;5097;43.260;27.812;2023-01-20T06:08:14;9.63;;;8.63;;
10114;SDS011;5097;43.260;27.812;2023-01-20T06:10:59;13.40;;;8.63;;
10114;SDS011;5097;43.260;27.812;2023-01-20T06:13:45;13.87;;;9.60;;
10114;SDS011;5097;43.260;27.812;2023-01-20T06:16:29;14.87;;;9.37;;
10114;SDS011;5097;43.260;27.812;2023-01-20T06:19:13;14.13;;;10.37;;
10114;SDS011;5097;43.260;27.812;2023-01-20T06:21:57;12.93;;;9.03;;
10114;SDS011;5097;43.260;27.812;2023-01-20T06:24:41;11.13;;;8.50;;
10114;SDS011;5097;43.260;27.812;2023-01-20T06:27:27;14.07;;;9.27;;
10114;SDS011;5097;43.260;27.812;2023-01-20T06:30:11;12.53;;;9.57;;
10114;SDS011;5097;43.260;27.812;2023-01-20T06:32:55;11.80;;;9.07;;
10114;SDS011;5097;43.260;27.812;2023-01-20T06:35:39;12.27;;;8.70;;
10114;SDS011;5097;43.260;27.812;2023-01-20T06:38:23;13.03;;;8.63;;
10114;SDS011;5097;43.260;27.812;2023-01-20T06:41:09;12.47;;;9.73;;
10114;SDS011;5097;43.260;27.812;2023-01-20T06:43:56;12.00;;;10.33;;
10114;SDS011;5097;43.260;27.812;2023-01-20T06:46:40;15.23;;;10.10;;
10114;SDS011;5097;43.260;27.812;2023-01-20T06:49:24;9.23;;;7.93;;
10114;SDS011;5097;43.260;27.812;2023-01-20T06:52:08;10.50;;;8.53;;
10114;SDS011;5097;43.260;27.812;2023-01-20T06:54:52;10.53;;;8.47;;
10114;SDS011;5097;43.260;27.812;2023-01-20T06:57:36;13.03;;;9.10;;
10114;SDS011;5097;43.260;27.812;2023-01-20T07:00:22;12.97;;;8.17;;
10114;SDS011;5097;43.260;27.812;2023-01-20T07:03:06;14.03;;;7.80;;
10114;SDS011;5097;43.260;27.812;2023-01-20T07:05:52;10.47;;;7.80;;
10114;SDS011;5097;43.260;27.812;2023-01-20T07:08:39;16.77;;;7.83;;
10114;SDS011;5097;43.260;27.812;2023-01-20T07:11:25;9.77;;;7.83;;
10114;SDS011;5097;43.260;27.812;2023-01-20T07:14:09;10.30;;;8.50;;
10114;SDS011;5097;43.260;27.812;2023-01-20T07:16:54;10.70;;;8.57;;
10114;SDS011;5097;43.260;27.812;2023-01-20T07:19:38;10.87;;;8.40;;
10114;SDS011;5097;43.260;27.812;2023-01-20T07:22:22;10.07;;;8.63;;
10114;SDS011;5097;43.260;27.812;2023-01-20T07:25:06;11.20;;;7.53;;
10114;SDS011;5097;43.260;27.812;2023-01-20T07:27:50;11.30;;;7.60;;
10114;SDS011;5097;43.260;27.812;2023-01-20T07:30:34;14.50;;;6.97;;
10114;SDS011;5097;43.260;27.812;2023-01-20T07:33:19;9.50;;;6.83;;
10114;SDS011;5097;43.260;27.812;2023-01-20T07:36:03;22.67;;;18.03;;
10114;SDS011;5097;43.260;27.812;2023-01-20T07:38:49;9.73;;;7.63;;
10114;SDS011;5097;43.260;27.812;2023-01-20T07:41:33;11.73;;;7.47;;
10114;SDS011;5097;43.260;27.812;2023-01-20T07:44:17;11.07;;;7.50;;
10114;SDS011;5097;43.260;27.812;2023-01-20T07:47:01;9.23;;;7.03;;
10114;SDS011;5097;43.260;27.812;2023-01-20T07:49:46;9.60;;;7.30;;
10114;SDS011;5097;43.260;27.812;2023-01-20T07:52:30;15.30;;;9.90;;
10114;SDS011;5097;43.260;27.812;2023-01-20T07:55:14;12.50;;;9.20;;
10114;SDS011;5097;43.260;27.812;2023-01-20T07:57:58;10.60;;;7.80;;
10114;SDS011;5097;43.260;27.812;2023-01-20T08:00:43;10.90;;;8.83;;
10114;SDS011;5097;43.260;27.812;2023-01-20T08:03:30;11.10;;;8.23;;
10114;SDS011;5097;43.260;27.812;2023-01-20T08:06:16;9.13;;;6.67;;
10114;SDS011;5097;43.260;27.812;2023-01-20T08:09:01;11.17;;;7.20;;
10114;SDS011;5097;43.260;27.812;2023-01-20T08:11:45;11.87;;;7.50;;
10114;SDS011;5097;43.260;27.812;2023-01-20T08:14:29;14.97;;;8.83;;
10114;SDS011;5097;43.260;27.812;2023-01-20T08:17:13;11.97;;;8.20;;
10114;SDS011;5097;43.260;27.812;2023-01-20T08:19:57;16.73;;;11.53;;
10114;SDS011;5097;43.260;27.812;2023-01-20T08:22:43;11.73;;;7.73;;
10114;SDS011;5097;43.260;27.812;2023-01-20T08:25:27;13.27;;;7.67;;
10114;SDS011;5097;43.260;27.812;2023-01-20T08:28:11;11.07;;;8.37;;
10114;SDS011;5097;43.260;27.812;2023-01-20T08:31:01;12.67;;;8.07;;
10114;SDS011;5097;43.260;27.812;2023-01-20T08:33:50;11.73;;;8.23;;
10114;SDS011;5097;43.260;27.812;2023-01-20T08:36:36;17.50;;;9.27;;
10114;SDS011;5097;43.260;27.812;2023-01-20T08:39:23;12.07;;;7.87;;
10114;SDS011;5097;43.260;27.812;2023-01-20T08:42:07;12.50;;;9.53;;
10114;SDS011;5097;43.260;27.812;2023-01-20T08:44:51;12.47;;;10.07;;
10114;SDS011;5097;43.260;27.812;2023-01-20T08:47:36;13.20;;;8.97;;
10114;SDS011;5097;43.260;27.812;2023-01-20T08:50:21;12.07;;;9.67;;
10114;SDS011;5097;43.260;27.812;2023-01-20T08:53:05;14.77;;;10.43;;
10114;SDS011;5097;43.260;27.812;2023-01-20T08:55:55;11.17;;;6.97;;
10114;SDS011;5097;43.260;27.812;2023-01-20T08:58:41;10.27;;;7.37;;
10114;SDS011;5097;43.260;27.812;2023-01-20T09:01:26;9.47;;;6.70;;
10114;SDS011;5097;43.260;27.812;2023-01-20T09:04:11;11.77;;;7.47;;
10114;SDS011;5097;43.260;27.812;2023-01-20T09:06:55;12.10;;;7.27;;
10114;SDS011;5097;43.260;27.812;2023-01-20T09:09:39;10.73;;;7.37;;
10114;SDS011;5097;43.260;27.812;2023-01-20T09:12:25;10.48;;;7.40;;
10114;SDS011;5097;43.260;27.812;2023-01-20T09:15:09;12.40;;;6.87;;
10114;SDS011;5097;43.260;27.812;2023-01-20T09:17:55;7.10;;;6.30;;
10114;SDS011;5097;43.260;27.812;2023-01-20T09:20:39;7.65;;;6.28;;
10114;SDS011;5097;43.260;27.812;2023-01-20T09:23:23;8.60;;;7.70;;
10114;SDS011;5097;43.260;27.812;2023-01-20T09:26:07;8.05;;;7.22;;
10114;SDS011;5097;43.260;27.812;2023-01-20T09:28:53;12.00;;;7.82;;
10114;SDS011;5097;43.260;27.812;2023-01-20T09:31:37;9.73;;;6.05;;
10114;SDS011;5097;43.260;27.812;2023-01-20T09:34:22;13.07;;;7.20;;
10114;SDS011;5097;43.260;27.812;2023-01-20T09:37:07;11.57;;;7.88;;
10114;SDS011;5097;43.260;27.812;2023-01-20T09:40:10;7.47;;;5.82;;
10114;SDS011;5097;43.260;27.812;2023-01-20T09:43:15;9.77;;;6.80;;
10114;SDS011;5097;43.260;27.812;2023-01-20T09:46:34;8.85;;;6.07;;
10114;SDS011;5097;43.260;27.812;2023-01-20T09:50:02;6.72;;;6.03;;
10114;SDS011;5097;43.260;27.812;2023-01-20T09:53:18;8.95;;;7.05;;
10114;SDS011;5097;43.260;27.812;2023-01-20T09:56:14;7.85;;;5.78;;
10114;SDS011;5097;43.260;27.812;2023-01-20T09:59:01;8.25;;;5.70;;
10114;SDS011;5097;43.260;27.812;2023-01-20T10:01:51;8.77;;;5.95;;
10114;SDS011;5097;43.260;27.812;2023-01-20T10:04:39;9.38;;;6.57;;
10114;SDS011;5097;43.260;27.812;2023-01-20T10:07:28;7.85;;;6.45;;
10114;SDS011;5097;43.260;27.812;2023-01-20T10:10:18;11.13;;;6.32;;
10114;SDS011;5097;43.260;27.812;2023-01-20T10:13:06;13.57;;;6.78;;
10114;SDS011;5097;43.260;27.812;2023-01-20T10:15:56;8.02;;;5.60;;
10114;SDS011;5097;43.260;27.812;2023-01-20T10:18:46;10.57;;;5.68;;
10114;SDS011;5097;43.260;27.812;2023-01-20T10:21:34;8.10;;;5.07;;
10114;SDS011;5097;43.260;27.812;2023-01-20T10:24:27;6.60;;;4.97;;
10114;SDS011;5097;43.260;27.812;2023-01-20T10:27:14;6.47;;;4.93;;
10114;SDS011;5097;43.260;27.812;2023-01-20T10:30:01;5.88;;;4.60;;
10114;SDS011;5097;43.260;27.812;2023-01-20T10:32:51;6.53;;;4.85;;
10114;SDS011;5097;43.260;27.812;2023-01-20T10:35:40;5.00;;;4.50;;
10114;SDS011;5097;43.260;27.812;2023-01-20T10:38:28;6.40;;;5.10;;
10114;SDS011;5097;43.260;27.812;2023-01-20T10:41:19;10.00;;;5.40;;
10114;SDS011;5097;43.260;27.812;2023-01-20T10:44:09;8.95;;;4.22;;
10114;SDS011;5097;43.260;27.812;2023-01-20T10:47:00;8.18;;;5.07;;
10114;SDS011;5097;43.260;27.812;2023-01-20T10:56:33;9.02;;;5.38;;
10114;SDS011;5097;43.260;27.812;2023-01-20T10:59:21;13.02;;;5.10;;
10114;SDS011;5097;43.260;27.812;2023-01-20T11:02:13;11.20;;;7.50;;
10114;SDS011;5097;43.260;27.812;2023-01-20T11:05:00;6.15;;;4.55;;
10114;SDS011;5097;43.260;27.812;2023-01-20T11:07:47;6.07;;;5.15;;
10114;SDS011;5097;43.260;27.812;2023-01-20T11:10:33;6.25;;;4.88;;
10114;SDS011;5097;43.260;27.812;2023-01-20T11:13:17;5.97;;;5.18;;
10114;SDS011;5097;43.260;27.812;2023-01-20T11:16:02;6.78;;;4.72;;
10114;SDS011;5097;43.260;27.812;2023-01-20T11:18:56;4.93;;;4.45;;
10114;SDS011;5097;43.260;27.812;2023-01-20T11:21:42;6.78;;;4.10;;
10114;SDS011;5097;43.260;27.812;2023-01-20T11:24:32;4.80;;;3.63;;
10114;SDS011;5097;43.260;27.812;2023-01-20T11:27:26;8.38;;;3.88;;
10114;SDS011;5097;43.260;27.812;2023-01-20T11:30:19;6.82;;;5.10;;
10114;SDS011;5097;43.260;27.812;2023-01-20T11:33:15;7.28;;;4.10;;
10114;SDS011;5097;43.260;27.812;2023-01-20T11:36:02;6.25;;;5.65;;
10114;SDS011;5097;43.260;27.812;2023-01-20T11:38:48;4.22;;;3.83;;
10114;SDS011;5097;43.260;27.812;2023-01-20T11:41:33;6.53;;;4.97;;
10114;SDS011;5097;43.260;27.812;2023-01-20T11:44:19;6.65;;;5.10;;
10114;SDS011;5097;43.260;27.812;2023-01-20T11:47:13;7.20;;;6.00;;
10114;SDS011;5097;43.260;27.812;2023-01-20T11:50:18;11.70;;;5.22;;
10114;SDS011;5097;43.260;27.812;2023-01-20T11:56:14;4.57;;;4.18;;
10114;SDS011;5097;43.260;27.812;2023-01-20T11:59:02;9.20;;;4.20;;
10114;SDS011;5097;43.260;27.812;2023-01-20T12:01:53;11.07;;;4.70;;
10114;SDS011;5097;43.260;27.812;2023-01-20T12:04:51;6.90;;;3.97;;
10114;SDS011;5097;43.260;27.812;2023-01-20T12:07:45;4.40;;;3.75;;
10114;SDS011;5097;43.260;27.812;2023-01-20T12:10:32;4.32;;;3.60;;
10114;SDS011;5097;43.260;27.812;2023-01-20T12:13:19;4.65;;;3.60;;
10114;SDS011;5097;43.260;27.812;2023-01-20T12:16:08;4.72;;;3.78;;
10114;SDS011;5097;43.260;27.812;2023-01-20T12:18:56;7.97;;;4.20;;
10114;SDS011;5097;43.260;27.812;2023-01-20T12:21:47;6.68;;;3.97;;
10114;SDS011;5097;43.260;27.812;2023-01-20T12:24:36;7.20;;;4.30;;
10114;SDS011;5097;43.260;27.812;2023-01-20T12:27:46;5.28;;;4.50;;
10114;SDS011;5097;43.260;27.812;2023-01-20T12:30:36;6.70;;;3.97;;
10114;SDS011;5097;43.260;27.812;2023-01-20T12:33:26;7.25;;;4.38;;
10114;SDS011;5097;43.260;27.812;2023-01-20T12:36:20;9.50;;;4.07;;
10114;SDS011;5097;43.260;27.812;2023-01-20T12:52:35;6.70;;;3.72;;
10114;SDS011;5097;43.260;27.812;2023-01-20T12:55:31;9.57;;;4.63;;
10114;SDS011;5097;43.260;27.812;2023-01-20T12:58:24;9.25;;;6.28;;
10114;SDS011;5097;43.260;27.812;2023-01-20T13:01:27;12.23;;;7.25;;
10114;SDS011;5097;43.260;27.812;2023-01-20T13:04:36;9.23;;;5.82;;
10114;SDS011;5097;43.260;27.812;2023-01-20T13:07:43;10.87;;;8.03;;
10114;SDS011;5097;43.260;27.812;2023-01-20T13:10:50;8.77;;;5.77;;
10114;SDS011;5097;43.260;27.812;2023-01-20T13:13:43;11.38;;;7.13;;
10114;SDS011;5097;43.260;27.812;2023-01-20T13:16:42;16.75;;;9.40;;
10114;SDS011;5097;43.260;27.812;2023-01-20T13:19:33;22.42;;;12.80;;
10114;SDS011;5097;43.260;27.812;2023-01-20T13:22:21;20.42;;;13.32;;
10114;SDS011;5097;43.260;27.812;2023-01-20T13:25:12;20.95;;;13.20;;
10114;SDS011;5097;43.260;27.812;2023-01-20T13:28:00;21.85;;;14.77;;
10114;SDS011;5097;43.260;27.812;2023-01-20T13:30:46;20.70;;;13.60;;
10114;SDS011;5097;43.260;27.812;2023-01-20T13:33:33;20.67;;;12.23;;
10114;SDS011;5097;43.260;27.812;2023-01-20T13:36:19;16.55;;;9.20;;
10114;SDS011;5097;43.260;27.812;2023-01-20T13:45:23;8.88;;;6.38;;
10114;SDS011;5097;43.260;27.812;2023-01-20T13:48:21;8.35;;;6.25;;
10114;SDS011;5097;43.260;27.812;2023-01-20T13:54:42;9.25;;;8.25;;
10114;SDS011;5097;43.260;27.812;2023-01-20T14:00:24;8.93;;;7.60;;
10114;SDS011;5097;43.260;27.812;2023-01-20T14:03:11;10.27;;;6.93;;
10114;SDS011;5097;43.260;27.812;2023-01-20T14:06:01;8.43;;;5.82;;
10114;SDS011;5097;43.260;27.812;2023-01-20T14:08:47;14.63;;;10.23;;
10114;SDS011;5097;43.260;27.812;2023-01-20T14:11:32;14.13;;;10.30;;
10114;SDS011;5097;43.260;27.812;2023-01-20T14:14:17;21.23;;;14.37;;
10114;SDS011;5097;43.260;27.812;2023-01-20T14:17:03;13.10;;;9.37;;
10114;SDS011;5097;43.260;27.812;2023-01-20T14:19:57;6.78;;;3.85;;
10114;SDS011;5097;43.260;27.812;2023-01-20T14:22:41;4.67;;;3.37;;
10114;SDS011;5097;43.260;27.812;2023-01-20T14:25:25;4.63;;;3.30;;
10114;SDS011;5097;43.260;27.812;2023-01-20T14:28:18;3.10;;;2.70;;
10114;SDS011;5097;43.260;27.812;2023-01-20T14:34:20;4.57;;;2.67;;
10114;SDS011;5097;43.260;27.812;2023-01-20T14:37:16;3.63;;;2.13;;
10114;SDS011;5097;43.260;27.812;2023-01-20T14:40:07;3.30;;;3.00;;
10114;SDS011;5097;43.260;27.812;2023-01-20T14:43:03;4.40;;;2.57;;
10114;SDS011;5097;43.260;27.812;2023-01-20T14:45:55;4.30;;;3.67;;
10114;SDS011;5097;43.260;27.812;2023-01-20T14:48:39;4.73;;;3.20;;
10114;SDS011;5097;43.260;27.812;2023-01-20T14:51:26;3.70;;;2.60;;
10114;SDS011;5097;43.260;27.812;2023-01-20T14:54:29;8.10;;;3.73;;
10114;SDS011;5097;43.260;27.812;2023-01-20T14:57:18;1.43;;;1.30;;
10114;SDS011;5097;43.260;27.812;2023-01-20T15:00:12;3.57;;;2.77;;
10114;SDS011;5097;43.260;27.812;2023-01-20T15:03:02;3.53;;;3.23;;
10114;SDS011;5097;43.260;27.812;2023-01-20T15:05:53;4.40;;;3.97;;
10114;SDS011;5097;43.260;27.812;2023-01-20T15:08:44;3.80;;;2.90;;
10114;SDS011;5097;43.260;27.812;2023-01-20T15:11:46;3.43;;;2.80;;
10114;SDS011;5097;43.260;27.812;2023-01-20T15:14:30;5.83;;;2.83;;
10114;SDS011;5097;43.260;27.812;2023-01-20T15:17:15;2.33;;;2.10;;
10114;SDS011;5097;43.260;27.812;2023-01-20T15:20:01;4.40;;;3.57;;
10114;SDS011;5097;43.260;27.812;2023-01-20T15:22:45;3.80;;;2.93;;
10114;SDS011;5097;43.260;27.812;2023-01-20T15:25:35;5.37;;;3.60;;
10114;SDS011;5097;43.260;27.812;2023-01-20T15:28:20;1.83;;;1.73;;
10114;SDS011;5097;43.260;27.812;2023-01-20T15:31:10;2.10;;;1.83;;
10114;SDS011;5097;43.260;27.812;2023-01-20T15:33:56;3.30;;;2.57;;
10114;SDS011;5097;43.260;27.812;2023-01-20T15:36:40;9.43;;;6.70;;
10114;SDS011;5097;43.260;27.812;2023-01-20T15:39:24;13.50;;;10.73;;
10114;SDS011;5097;43.260;27.812;2023-01-20T15:42:12;21.83;;;16.20;;
10114;SDS011;5097;43.260;27.812;2023-01-20T15:45:02;3.93;;;3.63;;
10114;SDS011;5097;43.260;27.812;2023-01-20T15:47:46;17.57;;;8.53;;
10114;SDS011;5097;43.260;27.812;2023-01-20T15:50:31;4.03;;;3.63;;
10114;SDS011;5097;43.260;27.812;2023-01-20T15:53:15;8.00;;;5.60;;
10114;SDS011;5097;43.260;27.812;2023-01-20T15:55:59;17.03;;;10.83;;
10114;SDS011;5097;43.260;27.812;2023-01-20T15:58:46;6.93;;;6.23;;
10114;SDS011;5097;43.260;27.812;2023-01-20T16:01:30;6.90;;;6.07;;
10114;SDS011;5097;43.260;27.812;2023-01-20T16:04:14;6.27;;;5.67;;
10114;SDS011;5097;43.260;27.812;2023-01-20T16:06:58;6.03;;;5.43;;
10114;SDS011;5097;43.260;27.812;2023-01-20T16:09:42;8.33;;;7.43;;
10114;SDS011;5097;43.260;27.812;2023-01-20T16:12:27;6.23;;;5.67;;
10114;SDS011;5097;43.260;27.812;2023-01-20T16:15:14;7.93;;;6.77;;
10114;SDS011;5097;43.260;27.812;2023-01-20T16:17:59;18.07;;;16.17;;
10114;SDS011;5097;43.260;27.812;2023-01-20T16:20:44;17.43;;;15.63;;
10114;SDS011;5097;43.260;27.812;2023-01-20T16:23:30;16.50;;;14.63;;
10114;SDS011;5097;43.260;27.812;2023-01-20T16:26:18;14.60;;;11.70;;
10114;SDS011;5097;43.260;27.812;2023-01-20T16:29:04;16.93;;;11.87;;
10114;SDS011;5097;43.260;27.812;2023-01-20T16:31:49;10.50;;;9.37;;
10114;SDS011;5097;43.260;27.812;2023-01-20T16:34:34;7.57;;;6.87;;
10114;SDS011;5097;43.260;27.812;2023-01-20T16:37:18;5.47;;;4.70;;
10114;SDS011;5097;43.260;27.812;2023-01-20T16:40:01;5.27;;;4.77;;
10114;SDS011;5097;43.260;27.812;2023-01-20T16:42:46;4.60;;;4.20;;
10114;SDS011;5097;43.260;27.812;2023-01-20T16:45:30;6.33;;;5.43;;
10114;SDS011;5097;43.260;27.812;2023-01-20T16:48:17;13.30;;;10.27;;
10114;SDS011;5097;43.260;27.812;2023-01-20T16:51:01;11.33;;;7.73;;
10114;SDS011;5097;43.260;27.812;2023-01-20T16:53:46;41.43;;;26.40;;
10114;SDS011;5097;43.260;27.812;2023-01-20T16:56:30;24.67;;;15.27;;
10114;SDS011;5097;43.260;27.812;2023-01-20T16:59:15;11.40;;;8.87;;
10114;SDS011;5097;43.260;27.812;2023-01-20T17:01:59;4.37;;;3.63;;
10114;SDS011;5097;43.260;27.812;2023-01-20T17:04:44;7.97;;;6.40;;
10114;SDS011;5097;43.260;27.812;2023-01-20T17:07:28;14.00;;;10.37;;
10114;SDS011;5097;43.260;27.812;2023-01-20T17:10:12;6.20;;;4.47;;
10114;SDS011;5097;43.260;27.812;2023-01-20T17:12:57;5.73;;;4.33;;
10114;SDS011;5097;43.260;27.812;2023-01-20T17:15:41;4.40;;;3.73;;
10114;SDS011;5097;43.260;27.812;2023-01-20T17:18:25;4.33;;;3.10;;
10114;SDS011;5097;43.260;27.812;2023-01-20T17:21:10;3.33;;;2.30;;
10114;SDS011;5097;43.260;27.812;2023-01-20T17:23:55;6.93;;;3.40;;